sensor_id;sensor_type;location;lat;lon;timestamp;pressure;altitude;pressure_sealevel;temperature;humidity
80180;BME280;69505;52.134;5.438;2024-01-10T00:01:05;103486.19;;;-5.42;76.29
80180;BME280;69505;52.134;5.438;2024-01-10T00:03:34;103485.38;;;-5.40;76.54
80180;BME280;69505;52.134;5.438;2024-01-10T00:06:01;103483.66;;;-5.41;76.58
80180;BME280;69505;52.134;5.438;2024-01-10T00:08:31;103481.72;;;-5.46;76.71
80180;BME280;69505;52.134;5.438;2024-01-10T00:10:57;103478.19;;;-5.50;77.08
80180;BME280;69505;52.134;5.438;2024-01-10T00:13:24;103478.91;;;-5.54;77.38
80180;BME280;69505;52.134;5.438;2024-01-10T00:15:50;103479.66;;;-5.57;77.58
80180;BME280;69505;52.134;5.438;2024-01-10T00:18:17;103480.44;;;-5.59;77.99
80180;BME280;69505;52.134;5.438;2024-01-10T00:20:44;103482.09;;;-5.61;78.11
80180;BME280;69505;52.134;5.438;2024-01-10T00:23:10;103477.66;;;-5.65;78.79
80180;BME280;69505;52.134;5.438;2024-01-10T00:25:37;103478.50;;;-5.66;78.98
80180;BME280;69505;52.134;5.438;2024-01-10T00:28:05;103477.56;;;-5.68;79.02
80180;BME280;69505;52.134;5.438;2024-01-10T00:30:31;103475.78;;;-5.69;79.14
80180;BME280;69505;52.134;5.438;2024-01-10T00:32:59;103472.25;;;-5.73;79.41
80180;BME280;69505;52.134;5.438;2024-01-10T00:35:25;103465.25;;;-5.76;79.50
80180;BME280;69505;52.134;5.438;2024-01-10T00:37:52;103472.06;;;-5.78;79.39
80180;BME280;69505;52.134;5.438;2024-01-10T00:40:19;103472.97;;;-5.77;79.45
80180;BME280;69505;52.134;5.438;2024-01-10T00:42:47;103468.53;;;-5.80;79.83
80180;BME280;69505;52.134;5.438;2024-01-10T00:45:14;103471.81;;;-5.85;80.19
80180;BME280;69505;52.134;5.438;2024-01-10T00:47:40;103466.59;;;-5.87;80.27
80180;BME280;69505;52.134;5.438;2024-01-10T00:50:07;103460.63;;;-5.84;80.19
80180;BME280;69505;52.134;5.438;2024-01-10T00:52:34;103469.19;;;-5.87;80.52
80180;BME280;69505;52.134;5.438;2024-01-10T00:55:01;103466.69;;;-5.84;80.74
80180;BME280;69505;52.134;5.438;2024-01-10T00:57:28;103457.25;;;-5.83;80.49
80180;BME280;69505;52.134;5.438;2024-01-10T00:59:54;103459.66;;;-5.88;80.52
80180;BME280;69505;52.134;5.438;2024-01-10T01:02:21;103452.56;;;-5.95;80.90
80180;BME280;69505;52.134;5.438;2024-01-10T01:04:48;103456.72;;;-5.99;80.88
80180;BME280;69505;52.134;5.438;2024-01-10T01:07:14;103454.13;;;-6.00;81.50
80180;BME280;69505;52.134;5.438;2024-01-10T01:09:41;103460.97;;;-6.01;81.08
80180;BME280;69505;52.134;5.438;2024-01-10T01:12:08;103456.50;;;-6.06;81.99
80180;BME280;69505;52.134;5.438;2024-01-10T01:14:34;103455.59;;;-6.07;82.05
80180;BME280;69505;52.134;5.438;2024-01-10T01:17:01;103463.31;;;-6.08;82.47
80180;BME280;69505;52.134;5.438;2024-01-10T01:19:27;103457.09;;;-6.14;81.71
80180;BME280;69505;52.134;5.438;2024-01-10T01:21:54;103457.09;;;-6.14;82.14
80180;BME280;69505;52.134;5.438;2024-01-10T01:24:21;103461.31;;;-6.16;83.03
80180;BME280;69505;52.134;5.438;2024-01-10T01:26:47;103453.56;;;-6.16;82.48
80180;BME280;69505;52.134;5.438;2024-01-10T01:29:14;103459.78;;;-6.10;82.48
80180;BME280;69505;52.134;5.438;2024-01-10T01:31:40;103453.78;;;-6.09;82.36
80180;BME280;69505;52.134;5.438;2024-01-10T01:34:07;103452.84;;;-6.12;82.33
80180;BME280;69505;52.134;5.438;2024-01-10T01:36:34;103450.31;;;-6.10;82.49
80180;BME280;69505;52.134;5.438;2024-01-10T01:39:00;103454.50;;;-6.14;82.15
80180;BME280;69505;52.134;5.438;2024-01-10T01:41:29;103446.75;;;-6.14;82.23
80180;BME280;69505;52.134;5.438;2024-01-10T01:43:56;103442.41;;;-6.15;82.40
80180;BME280;69505;52.134;5.438;2024-01-10T01:46:23;103444.16;;;-6.14;82.79
80180;BME280;69505;52.134;5.438;2024-01-10T01:48:50;103437.25;;;-6.15;82.24
80180;BME280;69505;52.134;5.438;2024-01-10T01:51:18;103431.44;;;-6.07;82.49
80180;BME280;69505;52.134;5.438;2024-01-10T01:53:48;103427.91;;;-6.09;81.85
80180;BME280;69505;52.134;5.438;2024-01-10T01:56:15;103420.31;;;-6.05;81.69
80180;BME280;69505;52.134;5.438;2024-01-10T01:58:43;103418.66;;;-6.03;81.45
80180;BME280;69505;52.134;5.438;2024-01-10T02:01:11;103424.72;;;-6.02;81.57
80180;BME280;69505;52.134;5.438;2024-01-10T02:03:38;103429.91;;;-6.02;81.38
80180;BME280;69505;52.134;5.438;2024-01-10T02:06:05;103428.97;;;-6.04;81.88
80180;BME280;69505;52.134;5.438;2024-01-10T02:08:35;103435.28;;;-5.96;81.39
80180;BME280;69505;52.134;5.438;2024-01-10T02:11:02;103430.94;;;-5.97;81.63
80180;BME280;69505;52.134;5.438;2024-01-10T02:13:30;103422.97;;;-6.03;81.72
80180;BME280;69505;52.134;5.438;2024-01-10T02:15:59;103420.38;;;-6.03;81.67
80180;BME280;69505;52.134;5.438;2024-01-10T02:18:26;103430.66;;;-6.05;82.77
80180;BME280;69505;52.134;5.438;2024-01-10T02:20:52;103409.88;;;-6.08;83.07
80180;BME280;69505;52.134;5.438;2024-01-10T02:23:19;103415.81;;;-6.10;82.56
80180;BME280;69505;52.134;5.438;2024-01-10T02:25:46;103408.88;;;-6.12;83.09
80180;BME280;69505;52.134;5.438;2024-01-10T02:28:13;103395.22;;;-6.07;83.50
80180;BME280;69505;52.134;5.438;2024-01-10T02:30:39;103406.44;;;-6.07;82.85
80180;BME280;69505;52.134;5.438;2024-01-10T02:33:06;103404.78;;;-6.05;83.31
80180;BME280;69505;52.134;5.438;2024-01-10T02:35:32;103390.06;;;-6.07;82.40
80180;BME280;69505;52.134;5.438;2024-01-10T02:37:59;103397.00;;;-6.06;83.12
80180;BME280;69505;52.134;5.438;2024-01-10T02:40:26;103390.06;;;-6.07;83.43
80180;BME280;69505;52.134;5.438;2024-01-10T02:42:53;103385.56;;;-6.13;83.03
80180;BME280;69505;52.134;5.438;2024-01-10T02:45:20;103380.50;;;-6.10;83.72
80180;BME280;69505;52.134;5.438;2024-01-10T02:47:46;103385.75;;;-6.07;83.66
80180;BME280;69505;52.134;5.438;2024-01-10T02:50:13;103381.50;;;-6.06;84.03
80180;BME280;69505;52.134;5.438;2024-01-10T02:52:40;103397.03;;;-6.05;83.68
80180;BME280;69505;52.134;5.438;2024-01-10T02:55:06;103385.75;;;-6.07;83.58
80180;BME280;69505;52.134;5.438;2024-01-10T02:57:33;103387.31;;;-6.12;83.82
80180;BME280;69505;52.134;5.438;2024-01-10T03:00:00;103388.09;;;-6.15;84.70
80180;BME280;69505;52.134;5.438;2024-01-10T03:02:26;103387.97;;;-6.19;85.02
80180;BME280;69505;52.134;5.438;2024-01-10T03:04:53;103387.06;;;-6.20;84.57
80180;BME280;69505;52.134;5.438;2024-01-10T03:07:20;103385.56;;;-6.13;85.22
80180;BME280;69505;52.134;5.438;2024-01-10T03:09:47;103386.31;;;-6.16;85.20
80180;BME280;69505;52.134;5.438;2024-01-10T03:12:14;103383.72;;;-6.17;84.43
80180;BME280;69505;52.134;5.438;2024-01-10T03:14:40;103383.72;;;-6.17;85.21
80180;BME280;69505;52.134;5.438;2024-01-10T03:17:07;103375.06;;;-6.18;84.80
80180;BME280;69505;52.134;5.438;2024-01-10T03:19:33;103378.53;;;-6.17;84.78
80180;BME280;69505;52.134;5.438;2024-01-10T03:22:00;103377.50;;;-6.22;85.23
80180;BME280;69505;52.134;5.438;2024-01-10T03:24:27;103373.91;;;-6.26;85.15
80180;BME280;69505;52.134;5.438;2024-01-10T03:26:53;103379.09;;;-6.26;85.60
80180;BME280;69505;52.134;5.438;2024-01-10T03:29:20;103377.34;;;-6.27;85.77
80180;BME280;69505;52.134;5.438;2024-01-10T03:31:47;103376.50;;;-6.26;85.40
80180;BME280;69505;52.134;5.438;2024-01-10T03:34:13;103375.53;;;-6.29;85.62
80180;BME280;69505;52.134;5.438;2024-01-10T03:36:40;103378.88;;;-6.32;86.39
80180;BME280;69505;52.134;5.438;2024-01-10T03:39:07;103376.13;;;-6.37;85.50
80180;BME280;69505;52.134;5.438;2024-01-10T03:41:33;103375.19;;;-6.40;86.06
80180;BME280;69505;52.134;5.438;2024-01-10T03:44:00;103376.97;;;-6.38;86.19
80180;BME280;69505;52.134;5.438;2024-01-10T03:46:26;103379.50;;;-6.39;86.60
80180;BME280;69505;52.134;5.438;2024-01-10T03:48:53;103377.63;;;-6.43;86.71
80180;BME280;69505;52.134;5.438;2024-01-10T03:51:20;103366.38;;;-6.45;86.71
80180;BME280;69505;52.134;5.438;2024-01-10T03:53:48;103375.06;;;-6.43;86.62
80180;BME280;69505;52.134;5.438;2024-01-10T03:56:17;103369.81;;;-6.45;87.23
80180;BME280;69505;52.134;5.438;2024-01-10T03:58:44;103372.38;;;-6.46;86.29
80180;BME280;69505;52.134;5.438;2024-01-10T04:01:11;103370.59;;;-6.47;86.67
80180;BME280;69505;52.134;5.438;2024-01-10T04:03:38;103360.97;;;-6.51;86.61
80180;BME280;69505;52.134;5.438;2024-01-10T04:06:08;103366.28;;;-6.48;86.90
80180;BME280;69505;52.134;5.438;2024-01-10T04:08:34;103357.59;;;-6.50;86.58
80180;BME280;69505;52.134;5.438;2024-01-10T04:11:02;103358.47;;;-6.50;86.52
80180;BME280;69505;52.134;5.438;2024-01-10T04:13:29;103360.16;;;-6.50;86.74
80180;BME280;69505;52.134;5.438;2024-01-10T04:15:56;103356.69;;;-6.51;86.26
80180;BME280;69505;52.134;5.438;2024-01-10T04:18:22;103354.88;;;-6.54;87.22
80180;BME280;69505;52.134;5.438;2024-01-10T04:20:49;103354.88;;;-6.54;87.38
80180;BME280;69505;52.134;5.438;2024-01-10T04:23:16;103362.84;;;-6.47;87.31
80180;BME280;69505;52.134;5.438;2024-01-10T04:25:43;103363.69;;;-6.48;87.25
80180;BME280;69505;52.134;5.438;2024-01-10T04:28:10;103367.94;;;-6.50;87.19
80180;BME280;69505;52.134;5.438;2024-01-10T04:30:36;103365.22;;;-6.54;87.08
80180;BME280;69505;52.134;5.438;2024-01-10T04:33:03;103365.94;;;-6.58;87.60
80180;BME280;69505;52.134;5.438;2024-01-10T04:35:30;103368.56;;;-6.56;86.93
80180;BME280;69505;52.134;5.438;2024-01-10T04:37:57;103357.38;;;-6.57;87.60
80180;BME280;69505;52.134;5.438;2024-01-10T04:40:24;103357.53;;;-6.52;86.99
80180;BME280;69505;52.134;5.438;2024-01-10T04:42:51;103360.97;;;-6.51;86.99
80180;BME280;69505;52.134;5.438;2024-01-10T04:45:17;103351.34;;;-6.56;86.64
80180;BME280;69505;52.134;5.438;2024-01-10T04:47:44;103351.28;;;-6.59;87.17
80180;BME280;69505;52.134;5.438;2024-01-10T04:50:11;103353.16;;;-6.53;86.96
80180;BME280;69505;52.134;5.438;2024-01-10T04:52:40;103348.94;;;-6.51;86.38
80180;BME280;69505;52.134;5.438;2024-01-10T04:55:07;103349.84;;;-6.49;86.21
80180;BME280;69505;52.134;5.438;2024-01-10T04:57:35;103342.16;;;-6.47;86.55
80180;BME280;69505;52.134;5.438;2024-01-10T05:00:02;103336.19;;;-6.46;86.61
80180;BME280;69505;52.134;5.438;2024-01-10T05:02:29;103339.66;;;-6.46;86.22
80180;BME280;69505;52.134;5.438;2024-01-10T05:04:58;103342.09;;;-6.49;85.94
80180;BME280;69505;52.134;5.438;2024-01-10T05:07:25;103337.06;;;-6.46;86.31
80180;BME280;69505;52.134;5.438;2024-01-10T05:09:51;103336.22;;;-6.45;85.95
80180;BME280;69505;52.134;5.438;2024-01-10T05:12:18;103331.16;;;-6.42;85.85
80180;BME280;69505;52.134;5.438;2024-01-10T05:14:44;103332.16;;;-6.38;85.87
80180;BME280;69505;52.134;5.438;2024-01-10T05:17:11;103332.91;;;-6.41;85.41
80180;BME280;69505;52.134;5.438;2024-01-10T05:19:37;103340.63;;;-6.42;85.31
80180;BME280;69505;52.134;5.438;2024-01-10T05:22:05;103325.78;;;-6.48;85.87
80180;BME280;69505;52.134;5.438;2024-01-10T05:24:32;103337.88;;;-6.47;85.98
80180;BME280;69505;52.134;5.438;2024-01-10T05:26:59;103337.00;;;-6.47;85.91
80180;BME280;69505;52.134;5.438;2024-01-10T05:29:25;103322.34;;;-6.48;86.16
80180;BME280;69505;52.134;5.438;2024-01-10T05:31:54;103322.44;;;-6.45;86.45
80180;BME280;69505;52.134;5.438;2024-01-10T05:34:21;103324.13;;;-6.46;85.54
80180;BME280;69505;52.134;5.438;2024-01-10T05:36:48;103323.28;;;-6.46;85.74
80180;BME280;69505;52.134;5.438;2024-01-10T05:39:16;103325.84;;;-6.46;85.87
80180;BME280;69505;52.134;5.438;2024-01-10T05:41:42;103324.09;;;-6.47;85.89
80180;BME280;69505;52.134;5.438;2024-01-10T05:44:12;103311.16;;;-6.47;85.99
80180;BME280;69505;52.134;5.438;2024-01-10T05:46:39;103314.47;;;-6.51;86.09
80180;BME280;69505;52.134;5.438;2024-01-10T05:49:06;103323.16;;;-6.49;85.87
80180;BME280;69505;52.134;5.438;2024-01-10T05:51:33;103325.78;;;-6.48;85.55
80180;BME280;69505;52.134;5.438;2024-01-10T05:54:00;103320.69;;;-6.46;85.59
80180;BME280;69505;52.134;5.438;2024-01-10T05:56:26;103316.31;;;-6.47;86.04
80180;BME280;69505;52.134;5.438;2024-01-10T05:58:53;103318.69;;;-6.54;85.91
80180;BME280;69505;52.134;5.438;2024-01-10T06:01:20;103311.16;;;-6.47;86.52
80180;BME280;69505;52.134;5.438;2024-01-10T06:03:47;103312.81;;;-6.49;85.63
80180;BME280;69505;52.134;5.438;2024-01-10T06:06:14;103316.25;;;-6.50;85.95
80180;BME280;69505;52.134;5.438;2024-01-10T06:08:40;103317.97;;;-6.49;85.93
80180;BME280;69505;52.134;5.438;2024-01-10T06:11:07;103311.94;;;-6.50;85.87
80180;BME280;69505;52.134;5.438;2024-01-10T06:13:36;103318.75;;;-6.52;86.39
80180;BME280;69505;52.134;5.438;2024-01-10T06:16:15;103316.97;;;-6.55;86.63
80180;BME280;69505;52.134;5.438;2024-01-10T06:18:43;103328.88;;;-6.58;86.77
80180;BME280;69505;52.134;5.438;2024-01-10T06:21:10;103324.59;;;-6.58;86.15
80180;BME280;69505;52.134;5.438;2024-01-10T06:23:37;103334.72;;;-6.64;86.80
80180;BME280;69505;52.134;5.438;2024-01-10T06:26:03;103322.41;;;-6.71;87.09
80180;BME280;69505;52.134;5.438;2024-01-10T06:28:31;103331.81;;;-6.73;87.41
80180;BME280;69505;52.134;5.438;2024-01-10T06:30:58;103323.22;;;-6.72;88.23
80180;BME280;69505;52.134;5.438;2024-01-10T06:33:25;103323.84;;;-6.79;88.13
80180;BME280;69505;52.134;5.438;2024-01-10T06:35:52;103313.28;;;-6.85;88.21
80180;BME280;69505;52.134;5.438;2024-01-10T06:38:19;103318.47;;;-6.85;88.97
80180;BME280;69505;52.134;5.438;2024-01-10T06:40:47;103322.38;;;-6.97;88.47
80180;BME280;69505;52.134;5.438;2024-01-10T06:43:14;103316.38;;;-6.96;88.49
80180;BME280;69505;52.134;5.438;2024-01-10T06:45:41;103323.13;;;-6.99;89.03
80180;BME280;69505;52.134;5.438;2024-01-10T06:48:08;103329.91;;;-7.03;89.39
80180;BME280;69505;52.134;5.438;2024-01-10T06:50:36;103331.53;;;-7.05;89.54
80180;BME280;69505;52.134;5.438;2024-01-10T06:53:03;103329.75;;;-7.07;89.63
80180;BME280;69505;52.134;5.438;2024-01-10T06:55:30;103324.38;;;-7.12;89.27
80180;BME280;69505;52.134;5.438;2024-01-10T06:57:56;103332.75;;;-7.19;89.55
80180;BME280;69505;52.134;5.438;2024-01-10T07:00:23;103332.66;;;-7.21;89.85
80180;BME280;69505;52.134;5.438;2024-01-10T07:02:50;103330.88;;;-7.23;89.79
80180;BME280;69505;52.134;5.438;2024-01-10T07:05:16;103333.22;;;-7.29;89.93
80180;BME280;69505;52.134;5.438;2024-01-10T07:07:43;103330.56;;;-7.31;91.36
80180;BME280;69505;52.134;5.438;2024-01-10T07:10:10;103327.88;;;-7.34;90.57
80180;BME280;69505;52.134;5.438;2024-01-10T07:12:37;103323.59;;;-7.33;90.88
80180;BME280;69505;52.134;5.438;2024-01-10T07:15:04;103326.25;;;-7.32;90.82
80180;BME280;69505;52.134;5.438;2024-01-10T07:17:31;103330.31;;;-7.39;90.49
80180;BME280;69505;52.134;5.438;2024-01-10T07:19:58;103328.44;;;-7.43;91.43
80180;BME280;69505;52.134;5.438;2024-01-10T07:22:24;103327.50;;;-7.45;91.30
80180;BME280;69505;52.134;5.438;2024-01-10T07:24:51;103330.88;;;-7.46;91.10
80180;BME280;69505;52.134;5.438;2024-01-10T07:27:17;103324.03;;;-7.45;91.16
80180;BME280;69505;52.134;5.438;2024-01-10T07:29:45;103336.97;;;-7.44;91.46
80180;BME280;69505;52.134;5.438;2024-01-10T07:32:12;103332.66;;;-7.45;91.75
80180;BME280;69505;52.134;5.438;2024-01-10T07:34:40;103337.13;;;-7.39;90.70
80180;BME280;69505;52.134;5.438;2024-01-10T07:37:07;103336.19;;;-7.41;90.44
80180;BME280;69505;52.134;5.438;2024-01-10T07:39:35;103335.50;;;-7.37;90.64
80180;BME280;69505;52.134;5.438;2024-01-10T07:42:02;103337.19;;;-7.38;90.56
80180;BME280;69505;52.134;5.438;2024-01-10T07:44:29;103342.59;;;-7.31;90.45
80180;BME280;69505;52.134;5.438;2024-01-10T07:46:56;103336.56;;;-7.32;90.16
80180;BME280;69505;52.134;5.438;2024-01-10T07:49:23;103343.47;;;-7.31;89.90
80180;BME280;69505;52.134;5.438;2024-01-10T07:51:50;103333.13;;;-7.32;89.62
80180;BME280;69505;52.134;5.438;2024-01-10T07:54:17;103349.78;;;-7.24;89.99
80180;BME280;69505;52.134;5.438;2024-01-10T07:56:43;103348.38;;;-7.15;88.91
80180;BME280;69505;52.134;5.438;2024-01-10T07:59:10;103350.09;;;-7.15;88.62
80180;BME280;69505;52.134;5.438;2024-01-10T08:01:44;103365.66;;;-7.13;88.60
80180;BME280;69505;52.134;5.438;2024-01-10T08:04:20;103363.94;;;-7.13;88.66
80180;BME280;69505;52.134;5.438;2024-01-10T08:06:47;103362.31;;;-7.11;88.23
80180;BME280;69505;52.134;5.438;2024-01-10T08:09:13;103355.25;;;-7.15;88.88
80180;BME280;69505;52.134;5.438;2024-01-10T08:11:40;103368.25;;;-7.13;88.70
80180;BME280;69505;52.134;5.438;2024-01-10T08:14:07;103352.75;;;-7.13;88.29
80180;BME280;69505;52.134;5.438;2024-01-10T08:16:34;103349.41;;;-7.11;88.74
80180;BME280;69505;52.134;5.438;2024-01-10T08:19:01;103347.81;;;-7.07;88.79
80180;BME280;69505;52.134;5.438;2024-01-10T08:21:28;103357.38;;;-7.05;88.29
80180;BME280;69505;52.134;5.438;2024-01-10T08:23:55;103354.84;;;-7.03;88.49
80180;BME280;69505;52.134;5.438;2024-01-10T08:26:21;103349.69;;;-7.03;88.45
80180;BME280;69505;52.134;5.438;2024-01-10T08:28:48;103355.72;;;-7.03;88.08
80180;BME280;69505;52.134;5.438;2024-01-10T08:31:18;103348.78;;;-7.04;88.19
80180;BME280;69505;52.134;5.438;2024-01-10T08:33:45;103343.69;;;-7.02;88.27
80180;BME280;69505;52.134;5.438;2024-01-10T08:36:13;103334.19;;;-7.03;87.85
80180;BME280;69505;52.134;5.438;2024-01-10T08:38:41;103344.78;;;-6.96;87.11
80180;BME280;69505;52.134;5.438;2024-01-10T08:41:08;103344.06;;;-6.91;87.72
80180;BME280;69505;52.134;5.438;2024-01-10T08:43:38;103337.47;;;-6.83;87.15
80180;BME280;69505;52.134;5.438;2024-01-10T08:46:05;103338.56;;;-6.77;86.49
80180;BME280;69505;52.134;5.438;2024-01-10T08:48:32;103335.22;;;-6.74;86.42
80180;BME280;69505;52.134;5.438;2024-01-10T08:50:58;103349.50;;;-6.60;86.07
80180;BME280;69505;52.134;5.438;2024-01-10T08:53:25;103342.28;;;-6.44;84.37
80180;BME280;69505;52.134;5.438;2024-01-10T08:55:52;103329.47;;;-6.41;84.01
80180;BME280;69505;52.134;5.438;2024-01-10T08:58:18;103325.28;;;-6.38;84.28
80180;BME280;69505;52.134;5.438;2024-01-10T09:00:45;103320.47;;;-6.27;83.30
80180;BME280;69505;52.134;5.438;2024-01-10T09:03:12;103327.59;;;-6.20;82.95
80180;BME280;69505;52.134;5.438;2024-01-10T09:05:38;103332.28;;;-6.08;82.30
80180;BME280;69505;52.134;5.438;2024-01-10T09:08:08;103336.69;;;-6.05;82.10
80180;BME280;69505;52.134;5.438;2024-01-10T09:10:35;103336.88;;;-5.99;82.37
80180;BME280;69505;52.134;5.438;2024-01-10T09:13:01;103331.94;;;-5.90;81.86
80180;BME280;69505;52.134;5.438;2024-01-10T09:15:29;103336.38;;;-5.86;81.46
80180;BME280;69505;52.134;5.438;2024-01-10T09:17:56;103340.84;;;-5.82;81.71
80180;BME280;69505;52.134;5.438;2024-01-10T09:20:23;103336.75;;;-5.75;80.49
80180;BME280;69505;52.134;5.438;2024-01-10T09:22:50;103336.78;;;-5.74;80.63
80180;BME280;69505;52.134;5.438;2024-01-10T09:25:17;103332.53;;;-5.72;80.96
80180;BME280;69505;52.134;5.438;2024-01-10T09:27:43;103326.63;;;-5.67;80.30
80180;BME280;69505;52.134;5.438;2024-01-10T09:30:11;103324.22;;;-5.61;80.58
80180;BME280;69505;52.134;5.438;2024-01-10T09:32:38;103315.09;;;-5.50;79.98
80180;BME280;69505;52.134;5.438;2024-01-10T09:35:06;103336.38;;;-5.30;78.79
80180;BME280;69505;52.134;5.438;2024-01-10T09:37:33;103319.97;;;-5.31;77.93
80180;BME280;69505;52.134;5.438;2024-01-10T09:40:00;103323.84;;;-5.16;76.44
80180;BME280;69505;52.134;5.438;2024-01-10T09:42:27;103322.31;;;-5.10;76.74
80180;BME280;69505;52.134;5.438;2024-01-10T09:44:59;103330.19;;;-5.05;76.33
80180;BME280;69505;52.134;5.438;2024-01-10T09:47:27;103332.22;;;-4.95;76.02
80180;BME280;69505;52.134;5.438;2024-01-10T09:49:54;103326.47;;;-4.84;74.70
80180;BME280;69505;52.134;5.438;2024-01-10T09:52:26;103323.28;;;-4.74;73.85
80180;BME280;69505;52.134;5.438;2024-01-10T09:54:56;103316.50;;;-4.69;72.43
80180;BME280;69505;52.134;5.438;2024-01-10T09:57:24;103320.00;;;-4.67;72.56
80180;BME280;69505;52.134;5.438;2024-01-10T09:59:52;103321.91;;;-4.61;72.85
80180;BME280;69505;52.134;5.438;2024-01-10T10:02:20;103317.53;;;-4.62;72.80
80180;BME280;69505;52.134;5.438;2024-01-10T10:04:54;103324.66;;;-4.55;72.94
80180;BME280;69505;52.134;5.438;2024-01-10T10:07:23;103318.72;;;-4.51;72.79
80180;BME280;69505;52.134;5.438;2024-01-10T10:09:51;103325.75;;;-4.45;72.29
80180;BME280;69505;52.134;5.438;2024-01-10T10:12:19;103315.38;;;-4.47;72.26
80180;BME280;69505;52.134;5.438;2024-01-10T10:14:46;103308.50;;;-4.45;72.46
80180;BME280;69505;52.134;5.438;2024-01-10T10:17:17;103317.53;;;-4.29;70.99
80180;BME280;69505;52.134;5.438;2024-01-10T10:19:44;103322.81;;;-4.24;70.97
80180;BME280;69505;52.134;5.438;2024-01-10T10:22:11;103328.06;;;-4.23;70.87
80180;BME280;69505;52.134;5.438;2024-01-10T10:24:38;103330.75;;;-4.18;71.08
80180;BME280;69505;52.134;5.438;2024-01-10T10:27:08;103323.06;;;-4.15;70.46
80180;BME280;69505;52.134;5.438;2024-01-10T10:29:38;103324.00;;;-4.12;70.34
80180;BME280;69505;52.134;5.438;2024-01-10T10:32:06;103325.00;;;-4.06;70.33
80180;BME280;69505;52.134;5.438;2024-01-10T10:34:35;103311.28;;;-4.02;70.30
80180;BME280;69505;52.134;5.438;2024-01-10T10:37:02;103316.66;;;-3.93;69.56
80180;BME280;69505;52.134;5.438;2024-01-10T10:39:29;103306.28;;;-3.93;69.58
80180;BME280;69505;52.134;5.438;2024-01-10T10:41:56;103301.31;;;-3.84;69.46
80180;BME280;69505;52.134;5.438;2024-01-10T10:44:24;103304.03;;;-3.79;68.87
80180;BME280;69505;52.134;5.438;2024-01-10T10:46:56;103295.50;;;-3.72;68.68
80180;BME280;69505;52.134;5.438;2024-01-10T10:49:47;103302.50;;;-3.70;68.51
80180;BME280;69505;52.134;5.438;2024-01-10T10:52:18;103299.94;;;-3.68;68.86
80180;BME280;69505;52.134;5.438;2024-01-10T10:54:46;103306.13;;;-3.63;68.77
80180;BME280;69505;52.134;5.438;2024-01-10T10:57:13;103308.94;;;-3.52;68.29
80180;BME280;69505;52.134;5.438;2024-01-10T10:59:41;103299.47;;;-3.49;68.46
80180;BME280;69505;52.134;5.438;2024-01-10T11:02:09;103294.56;;;-3.36;67.49
80180;BME280;69505;52.134;5.438;2024-01-10T11:04:39;103299.06;;;-3.28;66.25
80180;BME280;69505;52.134;5.438;2024-01-10T11:07:07;103300.84;;;-3.27;66.39
80180;BME280;69505;52.134;5.438;2024-01-10T11:09:34;103307.84;;;-3.22;66.38
80180;BME280;69505;52.134;5.438;2024-01-10T11:14:56;103301.94;;;-3.14;66.05
80180;BME280;69505;52.134;5.438;2024-01-10T11:20:34;103298.72;;;-3.02;65.00
80180;BME280;69505;52.134;5.438;2024-01-10T11:25:48;103292.78;;;-2.95;65.34
80180;BME280;69505;52.134;5.438;2024-01-10T11:28:15;103287.72;;;-2.89;64.96
80180;BME280;69505;52.134;5.438;2024-01-10T11:30:50;103285.28;;;-2.79;64.42
80180;BME280;69505;52.134;5.438;2024-01-10T11:33:21;103289.00;;;-2.67;63.68
80180;BME280;69505;52.134;5.438;2024-01-10T11:38:42;103283.00;;;-2.61;64.08
80180;BME280;69505;52.134;5.438;2024-01-10T11:41:15;103281.38;;;-2.56;63.26
80180;BME280;69505;52.134;5.438;2024-01-10T11:43:46;103279.78;;;-2.48;62.04
80180;BME280;69505;52.134;5.438;2024-01-10T11:46:12;103272.97;;;-2.39;62.69
80180;BME280;69505;52.134;5.438;2024-01-10T11:48:39;103259.16;;;-2.37;62.42
80180;BME280;69505;52.134;5.438;2024-01-10T11:51:07;103270.63;;;-2.24;60.92
80180;BME280;69505;52.134;5.438;2024-01-10T11:53:38;103270.66;;;-2.22;61.78
80180;BME280;69505;52.134;5.438;2024-01-10T11:56:10;103276.84;;;-2.16;61.48
80180;BME280;69505;52.134;5.438;2024-01-10T11:59:06;103266.47;;;-2.13;61.55
80180;BME280;69505;52.134;5.438;2024-01-10T12:01:39;103264.91;;;-2.01;61.43
80180;BME280;69505;52.134;5.438;2024-01-10T12:04:06;103257.09;;;-2.00;61.67
80180;BME280;69505;52.134;5.438;2024-01-10T12:06:45;103254.63;;;-1.92;60.44
80180;BME280;69505;52.134;5.438;2024-01-10T12:09:14;103253.84;;;-1.87;60.05
80180;BME280;69505;52.134;5.438;2024-01-10T12:11:41;103253.03;;;-1.81;59.90
80180;BME280;69505;52.134;5.438;2024-01-10T12:14:08;103249.69;;;-1.71;59.74
80180;BME280;69505;52.134;5.438;2024-01-10T12:16:36;103245.41;;;-1.67;59.69
80180;BME280;69505;52.134;5.438;2024-01-10T12:19:05;103241.97;;;-1.65;59.71
80180;BME280;69505;52.134;5.438;2024-01-10T12:21:32;103238.56;;;-1.60;59.12
80180;BME280;69505;52.134;5.438;2024-01-10T12:23:58;103239.50;;;-1.55;59.78
80180;BME280;69505;52.134;5.438;2024-01-10T12:26:25;103236.94;;;-1.49;59.25
80180;BME280;69505;52.134;5.438;2024-01-10T12:28:56;103236.19;;;-1.42;58.37
80180;BME280;69505;52.134;5.438;2024-01-10T12:31:24;103244.09;;;-1.34;58.61
80180;BME280;69505;52.134;5.438;2024-01-10T12:33:55;103236.41;;;-1.24;58.83
80180;BME280;69505;52.134;5.438;2024-01-10T12:36:22;103230.34;;;-1.18;58.75
80180;BME280;69505;52.134;5.438;2024-01-10T12:38:49;103237.38;;;-1.15;58.68
80180;BME280;69505;52.134;5.438;2024-01-10T12:41:18;103237.41;;;-1.11;57.96
80180;BME280;69505;52.134;5.438;2024-01-10T12:43:49;103231.34;;;-1.08;57.96
80180;BME280;69505;52.134;5.438;2024-01-10T12:46:17;103231.44;;;-1.00;57.06
80180;BME280;69505;52.134;5.438;2024-01-10T12:48:43;103220.97;;;-1.02;57.27
80180;BME280;69505;52.134;5.438;2024-01-10T12:51:12;103224.50;;;-0.97;58.20
80180;BME280;69505;52.134;5.438;2024-01-10T12:53:40;103222.78;;;-0.96;56.87
80180;BME280;69505;52.134;5.438;2024-01-10T12:56:09;103222.00;;;-0.88;57.78
80180;BME280;69505;52.134;5.438;2024-01-10T12:58:41;103221.19;;;-0.80;57.37
80180;BME280;69505;52.134;5.438;2024-01-10T13:01:08;103222.94;;;-0.78;58.11
80180;BME280;69505;52.134;5.438;2024-01-10T13:03:35;103229.09;;;-0.73;56.75